createdAt,value
2019-05-21T00:00:49.989Z,12.71
2019-05-21T00:02:50.105Z,12.72
2019-05-21T00:04:50.497Z,12.72
2019-05-21T00:06:50.763Z,12.72
2019-05-21T00:08:50.212Z,12.72
2019-05-21T00:10:50.255Z,12.71
2019-05-21T00:12:50.474Z,12.71
2019-05-21T00:14:50.614Z,12.71
2019-05-21T00:16:50.270Z,12.71
2019-05-21T00:18:50.381Z,12.70
2019-05-21T00:20:50.473Z,12.70
2019-05-21T00:22:50.503Z,12.70
2019-05-21T00:24:50.750Z,12.70
2019-05-21T00:26:50.127Z,12.71
2019-05-21T00:28:50.097Z,12.70
2019-05-21T00:30:50.242Z,12.70
2019-05-21T00:32:50.353Z,12.70
2019-05-21T00:34:49.978Z,12.70
2019-05-21T00:36:50.462Z,12.70
2019-05-21T00:38:52.497Z,12.70
2019-05-21T00:40:50.564Z,12.70
2019-05-21T00:42:49.828Z,12.71
2019-05-21T00:44:49.850Z,12.70
2019-05-21T00:46:50.156Z,12.71
2019-05-21T00:48:50.208Z,12.71
2019-05-21T00:50:50.320Z,12.72
2019-05-21T00:52:50.372Z,12.72
2019-05-21T00:54:50.489Z,12.72
2019-05-21T00:56:50.804Z,12.72
2019-05-21T00:58:50.018Z,12.71
2019-05-21T01:00:50.043Z,12.71
2019-05-21T01:02:50.083Z,12.71
2019-05-21T01:05:01.901Z,12.71
2019-05-21T01:06:49.756Z,12.71
2019-05-21T01:08:49.792Z,12.71
2019-05-21T01:10:49.880Z,12.71
2019-05-21T01:12:49.917Z,12.70
2019-05-21T01:14:49.990Z,12.70
2019-05-21T01:16:50.348Z,12.70
2019-05-21T01:18:50.539Z,12.70
2019-05-21T01:20:50.676Z,12.68
2019-05-21T01:22:49.926Z,12.68
2019-05-21T01:24:50.267Z,12.67
2019-05-21T01:26:50.478Z,12.66
2019-05-21T01:28:50.618Z,12.65
2019-05-21T01:30:49.728Z,12.65
2019-05-21T01:32:49.861Z,12.64
2019-05-21T01:34:50.384Z,12.62
2019-05-21T01:36:51.315Z,12.62
2019-05-21T01:38:49.968Z,12.61
2019-05-21T01:40:50.080Z,12.61
2019-05-21T01:42:50.210Z,12.61
2019-05-21T01:44:50.230Z,12.60
2019-05-21T01:46:50.463Z,12.58
2019-05-21T01:48:50.525Z,12.57
2019-05-21T01:50:50.609Z,12.57
2019-05-21T01:52:50.646Z,12.57
2019-05-21T01:54:49.765Z,12.57
2019-05-21T01:56:50.006Z,12.56
2019-05-21T01:58:50.039Z,12.55
2019-05-21T02:00:50.375Z,12.55
2019-05-21T02:02:50.518Z,12.54
2019-05-21T02:04:50.112Z,12.54
2019-05-21T02:06:50.353Z,12.53
2019-05-21T02:08:49.893Z,12.53
2019-05-21T02:10:49.989Z,12.52
2019-05-21T02:12:50.089Z,12.51
2019-05-21T02:14:50.211Z,12.50
2019-05-21T02:16:50.500Z,12.49
2019-05-21T02:18:50.536Z,12.48
2019-05-21T02:20:50.667Z,12.46
2019-05-21T02:22:49.796Z,12.45
2019-05-21T02:24:49.906Z,12.45
2019-05-21T02:26:50.216Z,12.45
2019-05-21T02:28:50.317Z,12.45
2019-05-21T02:30:50.327Z,12.45
2019-05-21T02:32:50.444Z,12.44
2019-05-21T02:34:49.965Z,12.44
2019-05-21T02:36:50.275Z,12.43
2019-05-21T02:38:50.355Z,12.44
2019-05-21T02:40:50.338Z,12.43
2019-05-21T02:42:50.465Z,12.42
2019-05-21T02:44:54.996Z,12.41
2019-05-21T02:46:50.215Z,12.41
2019-05-21T02:48:50.339Z,12.41
2019-05-21T02:50:50.362Z,12.41
2019-05-21T02:52:50.451Z,12.41
2019-05-21T02:54:50.576Z,12.41
2019-05-21T02:56:49.858Z,12.41
2019-05-21T02:58:50.009Z,12.41
2019-05-21T03:00:50.028Z,12.40
2019-05-21T03:02:50.023Z,12.39
2019-05-21T03:04:50.463Z,12.40
2019-05-21T03:06:49.800Z,12.39
2019-05-21T03:08:49.966Z,12.40
2019-05-21T03:10:50.059Z,12.39
2019-05-21T03:12:50.127Z,12.39
2019-05-21T03:14:50.230Z,12.39
2019-05-21T03:16:50.589Z,12.38
2019-05-21T03:18:50.664Z,12.38
2019-05-21T03:20:50.674Z,12.37
2019-05-21T03:22:49.816Z,12.36
2019-05-21T03:24:49.991Z,12.35
2019-05-21T03:26:50.253Z,12.34
2019-05-21T03:28:50.378Z,12.33
2019-05-21T03:30:50.485Z,12.33
2019-05-21T03:32:49.783Z,12.32
2019-05-21T03:34:50.384Z,12.31
2019-05-21T03:36:50.677Z,12.30
2019-05-21T03:38:49.741Z,12.29
2019-05-21T03:40:49.810Z,12.30
2019-05-21T03:42:49.993Z,12.29
2019-05-21T03:45:01.504Z,12.28
2019-05-21T03:46:50.259Z,12.27
2019-05-21T03:48:50.416Z,12.27
2019-05-21T03:50:50.514Z,12.26
2019-05-21T03:52:50.686Z,12.25
2019-05-21T03:54:49.729Z,12.25
2019-05-21T03:56:50.119Z,12.25
2019-05-21T03:58:50.117Z,12.25
2019-05-21T04:00:50.330Z,12.24
2019-05-21T04:02:50.482Z,12.23
2019-05-21T04:04:50.055Z,12.23
2019-05-21T04:06:53.087Z,12.21
2019-05-21T04:08:50.218Z,12.21
2019-05-21T04:10:50.422Z,12.20
2019-05-21T04:12:50.494Z,12.19
2019-05-21T04:14:50.571Z,12.18
2019-05-21T04:16:49.920Z,12.18
2019-05-21T04:18:50.016Z,12.19
2019-05-21T04:20:50.204Z,12.19
2019-05-21T04:22:50.349Z,12.18
2019-05-21T04:24:50.416Z,12.18
2019-05-21T04:26:50.247Z,12.18
2019-05-21T04:28:50.391Z,12.18
2019-05-21T04:30:50.541Z,12.18
2019-05-21T04:32:50.589Z,12.17
2019-05-21T04:34:50.025Z,12.18
2019-05-21T04:36:50.230Z,12.18
2019-05-21T04:38:50.404Z,12.18
2019-05-21T04:40:50.484Z,12.18
2019-05-21T04:42:50.663Z,12.18
2019-05-21T04:44:49.819Z,12.18
2019-05-21T04:46:50.072Z,12.17
2019-05-21T04:48:50.306Z,12.17
2019-05-21T04:50:50.405Z,12.17
2019-05-21T04:52:50.472Z,12.17
2019-05-21T04:54:50.568Z,12.17
2019-05-21T04:56:49.811Z,12.18
2019-05-21T04:58:49.931Z,12.18
2019-05-21T05:00:50.044Z,12.18
2019-05-21T05:02:50.079Z,12.18
2019-05-21T05:04:50.555Z,12.19
2019-05-21T05:06:50.789Z,12.20
2019-05-21T05:08:49.948Z,12.21
2019-05-21T05:10:50.032Z,12.22
2019-05-21T05:12:50.248Z,12.22
2019-05-21T05:14:50.448Z,12.22
2019-05-21T05:16:49.750Z,12.24
2019-05-21T05:18:49.862Z,12.27
2019-05-21T05:20:50.019Z,12.28
2019-05-21T05:22:50.093Z,12.29
2019-05-21T05:24:50.106Z,12.31
2019-05-21T05:26:50.264Z,12.32
2019-05-21T05:28:50.325Z,12.33
2019-05-21T05:30:50.386Z,12.35
2019-05-21T05:32:50.552Z,12.37
2019-05-21T05:34:49.979Z,12.39
2019-05-21T05:36:49.703Z,12.41
2019-05-21T05:38:49.781Z,12.41
2019-05-21T05:40:49.866Z,12.43
2019-05-21T05:42:50.036Z,12.45
2019-05-21T05:44:50.101Z,12.49
2019-05-21T05:46:50.306Z,12.50
2019-05-21T05:48:50.322Z,12.49
2019-05-21T05:50:50.382Z,12.48
2019-05-21T05:52:50.548Z,12.45
2019-05-21T05:54:50.756Z,12.44
2019-05-21T05:56:50.200Z,12.44
2019-05-21T05:58:50.313Z,12.52
2019-05-21T06:00:50.378Z,12.50
2019-05-21T06:02:50.507Z,12.46
2019-05-21T06:04:50.020Z,12.44
2019-05-21T06:06:50.269Z,12.42
2019-05-21T06:08:50.440Z,12.42
2019-05-21T06:10:50.488Z,12.43
2019-05-21T06:12:50.793Z,12.44
2019-05-21T06:14:49.797Z,12.40
2019-05-21T06:16:50.159Z,12.37
2019-05-21T06:18:50.413Z,12.37
2019-05-21T06:20:50.551Z,12.32
2019-05-21T06:22:50.691Z,12.33
2019-05-21T06:24:49.711Z,12.32
2019-05-21T06:26:49.922Z,12.28
2019-05-21T06:28:50.013Z,12.27
2019-05-21T06:30:50.213Z,12.30
2019-05-21T06:32:50.334Z,12.31
2019-05-21T06:34:49.674Z,12.31
2019-05-21T06:36:49.890Z,12.36
2019-05-21T06:38:50.053Z,12.36
2019-05-21T06:40:50.354Z,12.32
2019-05-21T06:42:50.440Z,12.30
2019-05-21T06:44:50.594Z,12.31
2019-05-21T06:46:49.956Z,12.30
2019-05-21T06:48:50.046Z,12.31
2019-05-21T06:50:50.090Z,12.31
2019-05-21T06:52:50.253Z,12.31
2019-05-21T06:54:50.395Z,12.32
2019-05-21T06:56:50.586Z,12.32
2019-05-21T06:58:50.641Z,12.34
2019-05-21T07:00:49.947Z,12.37
2019-05-21T07:02:50.021Z,12.37
2019-05-21T07:04:50.440Z,12.37
2019-05-21T07:06:50.639Z,12.38
2019-05-21T07:08:49.720Z,12.41
2019-05-21T07:10:49.909Z,12.42
2019-05-21T07:12:50.194Z,12.42
2019-05-21T07:14:50.583Z,12.46
2019-05-21T07:16:49.858Z,12.48
2019-05-21T07:18:50.024Z,12.50
2019-05-21T07:20:50.140Z,12.54
2019-05-21T07:22:50.805Z,12.59
2019-05-21T07:24:50.209Z,12.58
2019-05-21T07:26:50.417Z,12.58
2019-05-21T07:28:56.437Z,12.58
2019-05-21T07:30:50.491Z,12.56
2019-05-21T07:32:50.928Z,12.54
2019-05-21T07:34:50.420Z,12.53
2019-05-21T07:36:50.642Z,12.51
2019-05-21T07:38:54.709Z,12.48
2019-05-21T07:40:49.715Z,12.46
2019-05-21T07:42:49.911Z,12.48
2019-05-21T07:44:49.896Z,12.45
2019-05-21T07:46:50.314Z,12.42
2019-05-21T07:48:50.449Z,12.40
2019-05-21T07:50:50.569Z,12.38
2019-05-21T07:52:50.705Z,12.37
2019-05-21T07:54:49.730Z,12.38
2019-05-21T07:56:50.092Z,12.41
2019-05-21T07:58:50.211Z,12.45
2019-05-21T08:00:50.316Z,12.44
2019-05-21T08:02:50.408Z,12.44
2019-05-21T08:04:49.939Z,12.48
2019-05-21T08:06:50.132Z,12.50
2019-05-21T08:08:50.182Z,12.57
2019-05-21T08:10:50.247Z,12.59
2019-05-21T08:12:50.507Z,12.62
2019-05-21T08:14:50.592Z,12.66
2019-05-21T08:16:49.946Z,12.66
2019-05-21T08:18:50.083Z,12.68
2019-05-21T08:20:50.172Z,12.73
2019-05-21T08:22:50.198Z,12.77
2019-05-21T08:24:50.309Z,12.82
2019-05-21T08:26:50.617Z,12.89
2019-05-21T08:28:50.665Z,12.87
2019-05-21T08:30:50.701Z,12.90
2019-05-21T08:32:49.841Z,12.92
2019-05-21T08:34:50.277Z,13.05
2019-05-21T08:36:50.515Z,13.08
2019-05-21T08:38:50.606Z,13.10
2019-05-21T08:40:50.619Z,13.15
2019-05-21T08:42:50.621Z,13.14
2019-05-21T08:44:50.697Z,13.12
2019-05-21T08:46:50.065Z,13.08
2019-05-21T08:48:50.084Z,13.07
2019-05-21T08:50:50.203Z,12.99
2019-05-21T08:52:50.349Z,12.96
2019-05-21T08:54:50.435Z,12.94
2019-05-21T08:56:50.731Z,12.93
2019-05-21T08:58:49.795Z,12.97
2019-05-21T09:00:49.914Z,13.02
2019-05-21T09:02:49.947Z,12.97
2019-05-21T09:04:50.597Z,12.99
2019-05-21T09:06:49.760Z,13.01
2019-05-21T09:08:49.894Z,12.98
2019-05-21T09:10:50.005Z,13.07
2019-05-21T09:12:50.131Z,13.07
2019-05-21T09:14:50.204Z,13.07
2019-05-21T09:16:50.390Z,13.03
2019-05-21T09:18:50.529Z,13.00
2019-05-21T09:20:50.592Z,13.03
2019-05-21T09:22:50.684Z,13.12
2019-05-21T09:24:49.742Z,13.13
2019-05-21T09:26:50.016Z,13.14
2019-05-21T09:28:50.205Z,13.12
2019-05-21T09:30:50.280Z,13.09
2019-05-21T09:32:50.321Z,13.11
2019-05-21T09:34:49.967Z,13.15
2019-05-21T09:36:50.240Z,13.19
2019-05-21T09:38:50.415Z,13.20
2019-05-21T09:40:50.638Z,13.15
2019-05-21T09:42:50.662Z,13.18
2019-05-21T09:44:50.639Z,13.22
2019-05-21T09:46:49.872Z,13.22
2019-05-21T09:48:49.972Z,13.23
2019-05-21T09:50:50.060Z,13.31
2019-05-21T09:52:50.190Z,13.45
2019-05-21T09:54:50.359Z,13.47
2019-05-21T09:56:50.675Z,13.60
2019-05-21T09:58:49.887Z,13.63
2019-05-21T10:00:49.924Z,13.72
2019-05-21T10:02:50.689Z,13.73
2019-05-21T10:04:50.088Z,13.62
2019-05-21T10:06:50.342Z,13.52
2019-05-21T10:08:50.395Z,13.53
2019-05-21T10:10:50.483Z,13.56
2019-05-21T10:12:49.757Z,13.57
2019-05-21T10:14:49.784Z,13.58
2019-05-21T10:16:50.100Z,13.58
2019-05-21T10:18:50.289Z,13.54
2019-05-21T10:20:50.362Z,13.53
2019-05-21T10:22:50.410Z,13.53
2019-05-21T10:24:50.549Z,13.57
2019-05-21T10:26:49.705Z,13.56
2019-05-21T10:28:49.795Z,13.63
2019-05-21T10:30:49.925Z,13.65
2019-05-21T10:32:49.967Z,13.68
2019-05-21T10:34:50.428Z,13.74
2019-05-21T10:36:50.599Z,13.85
2019-05-21T10:38:50.688Z,13.91
2019-05-21T10:40:50.143Z,13.90
2019-05-21T10:42:50.443Z,13.93
2019-05-21T10:44:50.647Z,13.94
2019-05-21T10:46:49.915Z,13.87
2019-05-21T10:48:49.989Z,13.96
2019-05-21T10:50:50.097Z,14.25
2019-05-21T10:52:50.312Z,14.37
2019-05-21T10:54:50.370Z,14.57
2019-05-21T10:56:50.584Z,14.76
2019-05-21T10:58:50.665Z,14.89
2019-05-21T11:00:50.683Z,14.94
2019-05-21T11:02:49.800Z,14.85
2019-05-21T11:04:50.276Z,14.77
2019-05-21T11:06:50.479Z,14.99
2019-05-21T11:08:50.471Z,15.08
2019-05-21T11:10:50.698Z,15.10
2019-05-21T11:12:49.932Z,15.24
2019-05-21T11:14:49.971Z,15.22
2019-05-21T11:16:50.349Z,15.38
2019-05-21T11:18:50.532Z,15.56
2019-05-21T11:20:51.882Z,15.65
2019-05-21T11:22:50.018Z,15.88
2019-05-21T11:24:50.068Z,15.88
2019-05-21T11:26:50.317Z,16.25
2019-05-21T11:28:50.404Z,16.45
2019-05-21T11:30:50.932Z,16.58
2019-05-21T11:32:50.039Z,16.47
2019-05-21T11:34:51.066Z,16.57
2019-05-21T11:36:50.312Z,16.84
2019-05-21T11:38:50.414Z,17.05
2019-05-21T11:40:51.720Z,17.01
2019-05-21T11:42:53.629Z,17.18
2019-05-21T11:44:49.739Z,17.34
2019-05-21T11:46:50.149Z,17.29
2019-05-21T11:48:50.243Z,17.43
2019-05-21T11:50:50.363Z,17.39
2019-05-21T11:52:50.382Z,17.01
2019-05-21T11:54:50.391Z,16.91
2019-05-21T11:56:49.794Z,16.73
2019-05-21T11:58:49.800Z,16.55
2019-05-21T12:00:49.905Z,16.45
2019-05-21T12:02:49.951Z,16.53
2019-05-21T12:04:50.548Z,16.43
2019-05-21T12:06:49.835Z,16.32
2019-05-21T12:08:57.661Z,16.29
2019-05-21T12:10:49.723Z,16.22
2019-05-21T12:12:49.710Z,16.17
2019-05-21T12:14:49.929Z,16.09
2019-05-21T12:16:50.183Z,15.96
2019-05-21T12:18:50.386Z,15.82
2019-05-21T12:20:50.539Z,15.61
2019-05-21T12:22:50.702Z,15.40
2019-05-21T12:24:49.736Z,15.30
2019-05-21T12:26:50.002Z,15.17
2019-05-21T12:28:50.069Z,14.97
2019-05-21T12:30:50.143Z,14.87
2019-05-21T12:32:50.248Z,14.71
2019-05-21T12:34:50.640Z,14.66
2019-05-21T12:36:49.779Z,14.65
2019-05-21T12:38:49.837Z,14.63
2019-05-21T12:40:49.891Z,14.62
2019-05-21T12:42:49.974Z,14.63
2019-05-21T12:44:50.083Z,14.63
2019-05-21T12:46:50.334Z,14.60
2019-05-21T12:48:50.450Z,14.62
2019-05-21T12:50:50.529Z,14.57
2019-05-21T12:52:50.563Z,14.57
2019-05-21T12:54:49.751Z,14.50
2019-05-21T12:56:49.975Z,14.44
2019-05-21T12:58:49.973Z,14.43
2019-05-21T13:00:50.013Z,14.43
2019-05-21T13:02:50.123Z,14.40
2019-05-21T13:04:50.600Z,14.36
2019-05-21T13:06:49.883Z,14.34
2019-05-21T13:08:50.124Z,14.33
2019-05-21T13:10:50.384Z,14.22
2019-05-21T13:12:50.461Z,14.16
2019-05-21T13:14:50.538Z,14.09
2019-05-21T13:16:49.800Z,14.03
2019-05-21T13:18:49.950Z,14.00
2019-05-21T13:20:50.036Z,14.00
2019-05-21T13:22:50.226Z,14.02
2019-05-21T13:24:50.316Z,14.06
2019-05-21T13:26:50.537Z,14.06
2019-05-21T13:28:50.602Z,14.07
2019-05-21T13:30:49.696Z,14.10
2019-05-21T13:32:49.779Z,14.19
2019-05-21T13:34:50.454Z,14.19
2019-05-21T13:36:50.608Z,14.30
2019-05-21T13:38:50.687Z,14.34
2019-05-21T13:40:49.865Z,14.43
2019-05-21T13:42:50.141Z,14.56
2019-05-21T13:44:50.217Z,14.57
2019-05-21T13:46:50.403Z,14.62
2019-05-21T13:48:50.528Z,14.71
2019-05-21T13:50:50.555Z,14.79
2019-05-21T13:52:50.836Z,14.72
2019-05-21T13:54:50.468Z,14.83
2019-05-21T13:56:50.655Z,14.87
2019-05-21T13:58:49.824Z,14.90
2019-05-21T14:00:50.019Z,14.93
2019-05-21T14:02:50.035Z,14.89
2019-05-21T14:04:50.490Z,14.85
2019-05-21T14:06:50.679Z,14.87
2019-05-21T14:08:49.847Z,14.79
2019-05-21T14:10:49.919Z,14.68
2019-05-21T14:12:50.035Z,14.67
2019-05-21T14:14:51.372Z,14.65
2019-05-21T14:16:49.750Z,14.55
2019-05-21T14:18:50.172Z,14.53
2019-05-21T14:20:50.357Z,14.56
2019-05-21T14:22:50.528Z,14.62
2019-05-21T14:24:50.688Z,14.59
2019-05-21T14:26:49.996Z,14.58
2019-05-21T14:28:50.114Z,14.58
2019-05-21T14:30:50.182Z,14.59
2019-05-21T14:32:50.435Z,14.61
2019-05-21T14:35:02.700Z,14.59
2019-05-21T14:36:50.285Z,14.56
2019-05-21T14:38:50.361Z,14.59
2019-05-21T14:40:50.393Z,14.62
2019-05-21T14:43:01.153Z,14.63
2019-05-21T14:44:50.280Z,14.65
2019-05-21T14:46:50.547Z,14.66
2019-05-21T14:48:50.682Z,14.68
2019-05-21T14:50:50.280Z,14.68
2019-05-21T14:52:52.775Z,14.69
2019-05-21T14:54:49.848Z,14.62
2019-05-21T14:56:50.151Z,14.56
2019-05-21T14:58:50.728Z,14.48
2019-05-21T15:00:49.899Z,14.47
2019-05-21T15:02:50.006Z,14.42
2019-05-21T15:04:50.984Z,14.39
2019-05-21T15:06:50.338Z,14.30
2019-05-21T15:08:50.387Z,14.31
2019-05-21T15:10:50.534Z,14.30
2019-05-21T15:12:50.664Z,14.29
2019-05-21T15:14:49.835Z,14.29
2019-05-21T15:16:50.072Z,14.27
2019-05-21T15:18:50.196Z,14.25
2019-05-21T15:20:50.349Z,14.22
2019-05-21T15:22:50.434Z,14.16
2019-05-21T15:24:50.474Z,14.11
2019-05-21T15:26:50.574Z,14.05
2019-05-21T15:28:50.670Z,14.00
2019-05-21T15:30:49.742Z,13.94
2019-05-21T15:32:49.811Z,13.89
2019-05-21T15:34:50.442Z,13.82
2019-05-21T15:36:50.729Z,13.79
2019-05-21T15:38:51.690Z,13.78
2019-05-21T15:41:12.968Z,13.77
2019-05-21T15:42:54.198Z,13.75
2019-05-21T15:44:50.354Z,13.71
2019-05-21T15:46:52.428Z,13.71
2019-05-21T15:48:50.668Z,13.71
2019-05-21T15:50:49.962Z,13.70
2019-05-21T15:52:50.018Z,13.69
2019-05-21T15:54:49.955Z,13.67
2019-05-21T15:56:50.057Z,13.68
2019-05-21T15:58:50.041Z,13.63
2019-05-21T16:00:49.975Z,13.61
2019-05-21T16:02:50.051Z,13.55
2019-05-21T16:04:50.362Z,13.54
2019-05-21T16:06:50.467Z,13.54
2019-05-21T16:08:51.049Z,13.51
2019-05-21T16:10:50.244Z,13.51
2019-05-21T16:12:54.885Z,13.53
2019-05-21T16:14:49.881Z,13.51
2019-05-21T16:16:49.970Z,13.50
2019-05-21T16:18:50.117Z,13.50
2019-05-21T16:20:50.067Z,13.49
2019-05-21T16:22:50.026Z,13.50
2019-05-21T16:24:50.045Z,13.50
2019-05-21T16:26:50.280Z,13.48
2019-05-21T16:28:50.284Z,13.45
2019-05-21T16:30:50.318Z,13.45
2019-05-21T16:32:50.394Z,13.45
2019-05-21T16:34:50.080Z,13.42
2019-05-21T16:36:50.363Z,13.41
2019-05-21T16:38:50.373Z,13.39
2019-05-21T16:40:50.388Z,13.38
2019-05-21T16:42:50.423Z,13.37
2019-05-21T16:44:50.431Z,13.36
2019-05-21T16:46:50.512Z,13.34
2019-05-21T16:48:50.432Z,13.34
2019-05-21T16:50:50.523Z,13.33
2019-05-21T16:52:50.437Z,13.33
2019-05-21T16:54:50.369Z,13.31
2019-05-21T16:56:50.422Z,13.31
2019-05-21T16:58:50.442Z,13.32
2019-05-21T17:00:50.653Z,13.32
2019-05-21T17:02:50.133Z,13.33
2019-05-21T17:04:50.455Z,13.35
2019-05-21T17:06:49.787Z,13.37
2019-05-21T17:08:49.760Z,13.38
2019-05-21T17:10:50.692Z,13.39
2019-05-21T17:12:49.742Z,13.42
2019-05-21T17:14:50.667Z,13.42
2019-05-21T17:16:49.865Z,13.44
2019-05-21T17:18:49.972Z,13.44
2019-05-21T17:20:49.973Z,13.44
2019-05-21T17:22:49.930Z,13.43
2019-05-21T17:24:49.942Z,13.43
2019-05-21T17:26:50.132Z,13.42
2019-05-21T17:28:50.206Z,13.42
2019-05-21T17:30:50.155Z,13.39
2019-05-21T17:32:50.168Z,13.37
2019-05-21T17:34:50.441Z,13.35
2019-05-21T17:36:50.491Z,13.32
2019-05-21T17:38:50.445Z,13.32
2019-05-21T17:40:50.613Z,13.32
2019-05-21T17:42:49.714Z,13.31
2019-05-21T17:44:49.827Z,13.32
2019-05-21T17:46:50.386Z,13.33
2019-05-21T17:48:50.328Z,13.32
2019-05-21T17:50:50.416Z,13.31
2019-05-21T17:52:50.421Z,13.30
2019-05-21T17:54:57.502Z,13.29
2019-05-21T17:56:50.550Z,13.28
2019-05-21T17:58:50.526Z,13.26
2019-05-21T18:00:50.574Z,13.22
2019-05-21T18:02:50.461Z,13.21
2019-05-21T18:04:49.876Z,13.20
2019-05-21T18:06:50.020Z,13.20
2019-05-21T18:08:50.080Z,13.18
2019-05-21T18:10:50.083Z,13.16
2019-05-21T18:12:50.117Z,13.13
2019-05-21T18:14:50.119Z,13.11
2019-05-21T18:16:50.274Z,13.09
2019-05-21T18:18:50.271Z,13.07
2019-05-21T18:20:50.269Z,13.05
2019-05-21T18:22:50.371Z,13.03
2019-05-21T18:24:50.543Z,13.02
2019-05-21T18:26:50.665Z,12.99
2019-05-21T18:28:50.627Z,12.98
2019-05-21T18:30:50.675Z,12.97
2019-05-21T18:32:50.624Z,12.96
2019-05-21T18:34:49.794Z,12.95
2019-05-21T18:36:50.011Z,12.94
2019-05-21T18:38:50.046Z,12.94
2019-05-21T18:40:50.025Z,12.93
2019-05-21T18:42:49.998Z,12.93
2019-05-21T18:44:50.116Z,12.92
2019-05-21T18:46:50.309Z,12.91
2019-05-21T18:48:50.240Z,12.91
2019-05-21T18:50:50.222Z,12.90
2019-05-21T18:52:50.256Z,12.90
2019-05-21T18:54:50.298Z,12.89
2019-05-21T18:56:50.489Z,12.89
2019-05-21T18:58:50.760Z,12.87
2019-05-21T19:00:49.770Z,12.87
2019-05-21T19:02:49.744Z,12.86
2019-05-21T19:04:50.212Z,12.85
2019-05-21T19:06:50.650Z,12.85
2019-05-21T19:08:50.840Z,12.83
2019-05-21T19:10:49.804Z,12.83
2019-05-21T19:12:49.824Z,12.83
2019-05-21T19:14:49.843Z,12.81
2019-05-21T19:16:49.971Z,12.80
2019-05-21T19:18:49.897Z,12.79
2019-05-21T19:20:50.475Z,12.78
2019-05-21T19:22:50.549Z,12.77
2019-05-21T19:24:50.540Z,12.76
2019-05-21T19:26:50.225Z,12.76
2019-05-21T19:28:50.282Z,12.75
2019-05-21T19:30:50.404Z,12.73
2019-05-21T19:32:50.600Z,12.72
2019-05-21T19:34:49.893Z,12.71
2019-05-21T19:36:50.054Z,12.69
2019-05-21T19:38:50.135Z,12.68
2019-05-21T19:40:50.138Z,12.66
2019-05-21T19:42:55.976Z,12.65
2019-05-21T19:44:50.024Z,12.63
2019-05-21T19:46:50.157Z,12.62
2019-05-21T19:48:50.224Z,12.61
2019-05-21T19:50:50.204Z,12.61
2019-05-21T19:52:50.194Z,12.59
2019-05-21T19:54:50.179Z,12.58
2019-05-21T19:56:50.294Z,12.57
2019-05-21T19:58:50.246Z,12.56
2019-05-21T20:00:50.204Z,12.56
2019-05-21T20:02:50.255Z,12.55
2019-05-21T20:04:50.475Z,12.54
2019-05-21T20:06:50.506Z,12.52
2019-05-21T20:08:50.591Z,12.52
2019-05-21T20:10:50.605Z,12.52
2019-05-21T20:12:50.769Z,12.50
2019-05-21T20:14:49.803Z,12.49
2019-05-21T20:16:51.328Z,12.49
2019-05-21T20:18:50.336Z,12.50
2019-05-21T20:20:50.370Z,12.49
2019-05-21T20:22:50.316Z,12.48
2019-05-21T20:24:50.309Z,12.47
2019-05-21T20:26:50.372Z,12.47
2019-05-21T20:28:50.453Z,12.46
2019-05-21T20:30:50.421Z,12.45
2019-05-21T20:32:50.390Z,12.45
2019-05-21T20:34:51.574Z,12.44
2019-05-21T20:36:49.790Z,12.44
2019-05-21T20:38:49.777Z,12.43
2019-05-21T20:40:49.700Z,12.42
2019-05-21T20:42:49.812Z,12.42
2019-05-21T20:44:50.037Z,12.42
2019-05-21T20:46:50.127Z,12.42
2019-05-21T20:48:50.231Z,12.40
2019-05-21T20:50:50.228Z,12.39
2019-05-21T20:52:50.254Z,12.37
2019-05-21T20:54:50.279Z,12.36
2019-05-21T20:56:50.415Z,12.36
2019-05-21T20:58:50.371Z,12.36
2019-05-21T21:00:50.574Z,12.35
2019-05-21T21:02:50.536Z,12.35
2019-05-21T21:04:49.823Z,12.36
2019-05-21T21:06:50.102Z,12.35
2019-05-21T21:08:50.157Z,12.34
2019-05-21T21:10:50.211Z,12.34
2019-05-21T21:12:50.218Z,12.34
2019-05-21T21:14:50.236Z,12.34
2019-05-21T21:16:50.413Z,12.34
2019-05-21T21:18:50.386Z,12.34
2019-05-21T21:20:50.402Z,12.34
2019-05-21T21:22:50.438Z,12.35
2019-05-21T21:24:50.380Z,12.35
2019-05-21T21:26:50.594Z,12.35
2019-05-21T21:28:50.668Z,12.36
2019-05-21T21:30:50.687Z,12.36
2019-05-21T21:32:49.706Z,12.36
2019-05-21T21:34:50.078Z,12.37
2019-05-21T21:36:53.740Z,12.37
2019-05-21T21:38:49.862Z,12.37
2019-05-21T21:40:49.761Z,12.37
2019-05-21T21:42:49.757Z,12.36
2019-05-21T21:44:49.825Z,12.37
2019-05-21T21:46:49.898Z,12.37
2019-05-21T21:48:49.873Z,12.37
2019-05-21T21:50:49.852Z,12.37
2019-05-21T21:52:49.865Z,12.37
2019-05-21T21:54:50.016Z,12.37
2019-05-21T21:56:50.135Z,12.36
2019-05-21T21:58:50.175Z,12.36
2019-05-21T22:00:50.197Z,12.36
2019-05-21T22:02:50.010Z,12.35
2019-05-21T22:04:50.451Z,12.35
2019-05-21T22:06:50.835Z,12.34
2019-05-21T22:08:50.017Z,12.32
2019-05-21T22:10:50.012Z,12.30
2019-05-21T22:12:50.024Z,12.30
2019-05-21T22:14:52.860Z,12.29
2019-05-21T22:16:52.217Z,12.29
2019-05-21T22:18:50.209Z,12.27
2019-05-21T22:20:50.283Z,12.26
2019-05-21T22:22:50.281Z,12.26
2019-05-21T22:24:50.570Z,12.25
2019-05-21T22:26:50.004Z,12.25
2019-05-21T22:28:50.542Z,12.24
2019-05-21T22:30:50.536Z,12.24
2019-05-21T22:32:50.615Z,12.23
2019-05-21T22:34:50.054Z,12.22
2019-05-21T22:36:50.115Z,12.21
2019-05-21T22:38:50.105Z,12.21
2019-05-21T22:40:50.129Z,12.20
2019-05-21T22:42:50.198Z,12.20
2019-05-21T22:45:09.239Z,12.19
2019-05-21T22:46:50.087Z,12.17
2019-05-21T22:48:50.028Z,12.16
2019-05-21T22:50:50.042Z,12.16
2019-05-21T22:52:50.024Z,12.16
2019-05-21T22:54:49.991Z,12.15
2019-05-21T22:56:50.121Z,12.15
2019-05-21T22:58:50.128Z,12.13
2019-05-21T23:00:50.051Z,12.13
2019-05-21T23:02:50.111Z,12.13
2019-05-21T23:04:50.463Z,12.13
2019-05-21T23:06:50.571Z,12.13
2019-05-21T23:08:50.530Z,12.12
2019-05-21T23:10:50.612Z,12.12
2019-05-21T23:12:50.735Z,12.13
2019-05-21T23:14:49.820Z,12.13
2019-05-21T23:16:49.953Z,12.13
2019-05-21T23:18:50.008Z,12.12
2019-05-21T23:20:49.965Z,12.11
2019-05-21T23:22:49.965Z,12.09
2019-05-21T23:24:49.935Z,12.08
2019-05-21T23:26:50.079Z,12.07
2019-05-21T23:28:50.044Z,12.07
2019-05-21T23:30:50.080Z,12.05
2019-05-21T23:32:50.138Z,12.03
2019-05-21T23:34:50.483Z,11.98
2019-05-21T23:36:49.691Z,11.95
2019-05-21T23:38:50.631Z,11.95
2019-05-21T23:40:50.677Z,11.92
2019-05-21T23:42:49.672Z,11.92
2019-05-21T23:44:50.565Z,11.89
2019-05-21T23:46:50.645Z,11.87
2019-05-21T23:48:49.893Z,11.85
2019-05-21T23:50:49.948Z,11.82
2019-05-21T23:52:49.900Z,11.81
2019-05-21T23:54:49.946Z,11.80
2019-05-21T23:56:50.157Z,11.79
2019-05-21T23:58:50.116Z,11.77
